sensor_id;sensor_type;location;lat;lon;timestamp;P1;durP1;ratioP1;P2;durP2;ratioP2
5022;SDS011;2530;47.990;7.866;2023-05-16T00:00:54;6.07;;;5.47;;
5022;SDS011;2530;47.990;7.866;2023-05-16T00:03:20;6.00;;;5.40;;
5022;SDS011;2530;47.990;7.866;2023-05-16T00:05:45;5.70;;;5.30;;
5022;SDS011;2530;47.990;7.866;2023-05-16T00:08:11;6.18;;;5.57;;
5022;SDS011;2530;47.990;7.866;2023-05-16T00:10:37;5.50;;;5.10;;
5022;SDS011;2530;47.990;7.866;2023-05-16T00:13:03;5.67;;;5.27;;
5022;SDS011;2530;47.990;7.866;2023-05-16T00:15:31;5.55;;;5.15;;
5022;SDS011;2530;47.990;7.866;2023-05-16T00:17:57;6.00;;;5.40;;
5022;SDS011;2530;47.990;7.866;2023-05-16T00:20:24;5.82;;;5.28;;
5022;SDS011;2530;47.990;7.866;2023-05-16T00:22:53;5.23;;;4.73;;
5022;SDS011;2530;47.990;7.866;2023-05-16T00:25:19;5.65;;;5.15;;
5022;SDS011;2530;47.990;7.866;2023-05-16T00:27:44;6.28;;;5.68;;
5022;SDS011;2530;47.990;7.866;2023-05-16T00:30:10;6.82;;;4.80;;
5022;SDS011;2530;47.990;7.866;2023-05-16T00:32:36;5.30;;;4.90;;
5022;SDS011;2530;47.990;7.866;2023-05-16T00:35:02;5.77;;;5.30;;
5022;SDS011;2530;47.990;7.866;2023-05-16T00:37:28;5.40;;;5.00;;
5022;SDS011;2530;47.990;7.866;2023-05-16T00:39:53;6.00;;;5.47;;
5022;SDS011;2530;47.990;7.866;2023-05-16T00:42:19;5.97;;;5.47;;
5022;SDS011;2530;47.990;7.866;2023-05-16T00:44:45;5.30;;;4.90;;
5022;SDS011;2530;47.990;7.866;2023-05-16T00:47:12;5.80;;;5.30;;
5022;SDS011;2530;47.990;7.866;2023-05-16T00:49:37;5.60;;;5.10;;
5022;SDS011;2530;47.990;7.866;2023-05-16T00:52:03;5.70;;;5.30;;
5022;SDS011;2530;47.990;7.866;2023-05-16T00:54:29;5.97;;;5.47;;
5022;SDS011;2530;47.990;7.866;2023-05-16T00:56:55;5.63;;;4.88;;
5022;SDS011;2530;47.990;7.866;2023-05-16T00:59:25;6.28;;;5.68;;
5022;SDS011;2530;47.990;7.866;2023-05-16T01:01:51;7.65;;;5.75;;
5022;SDS011;2530;47.990;7.866;2023-05-16T01:04:16;5.88;;;5.38;;
5022;SDS011;2530;47.990;7.866;2023-05-16T01:06:43;6.10;;;5.00;;
5022;SDS011;2530;47.990;7.866;2023-05-16T01:09:09;6.15;;;4.90;;
5022;SDS011;2530;47.990;7.866;2023-05-16T01:17:22;6.33;;;5.73;;
5022;SDS011;2530;47.990;7.866;2023-05-16T01:26:18;6.35;;;5.85;;
5022;SDS011;2530;47.990;7.866;2023-05-16T01:28:46;5.90;;;5.40;;
5022;SDS011;2530;47.990;7.866;2023-05-16T01:31:13;5.93;;;5.43;;
5022;SDS011;2530;47.990;7.866;2023-05-16T01:33:40;6.55;;;5.95;;
5022;SDS011;2530;47.990;7.866;2023-05-16T01:36:10;6.90;;;6.30;;
5022;SDS011;2530;47.990;7.866;2023-05-16T01:47:11;8.73;;;6.10;;
5022;SDS011;2530;47.990;7.866;2023-05-16T01:49:40;6.85;;;6.20;;
5022;SDS011;2530;47.990;7.866;2023-05-16T01:52:10;6.97;;;6.38;;
5022;SDS011;2530;47.990;7.866;2023-05-16T01:54:42;6.90;;;6.30;;
5022;SDS011;2530;47.990;7.866;2023-05-16T01:57:09;6.82;;;6.22;;
5022;SDS011;2530;47.990;7.866;2023-05-16T01:59:36;6.95;;;6.35;;
5022;SDS011;2530;47.990;7.866;2023-05-16T02:02:03;7.47;;;6.28;;
5022;SDS011;2530;47.990;7.866;2023-05-16T02:04:29;6.73;;;6.23;;
5022;SDS011;2530;47.990;7.866;2023-05-16T02:06:55;6.67;;;6.13;;
5022;SDS011;2530;47.990;7.866;2023-05-16T02:09:21;6.88;;;6.38;;
5022;SDS011;2530;47.990;7.866;2023-05-16T02:11:47;7.10;;;6.50;;
5022;SDS011;2530;47.990;7.866;2023-05-16T02:14:12;7.97;;;6.90;;
5022;SDS011;2530;47.990;7.866;2023-05-16T02:16:38;7.73;;;7.03;;
5022;SDS011;2530;47.990;7.866;2023-05-16T02:19:04;7.27;;;6.67;;
5022;SDS011;2530;47.990;7.866;2023-05-16T02:21:30;7.65;;;6.95;;
5022;SDS011;2530;47.990;7.866;2023-05-16T02:23:55;7.30;;;6.70;;
5022;SDS011;2530;47.990;7.866;2023-05-16T02:26:21;7.50;;;6.90;;
5022;SDS011;2530;47.990;7.866;2023-05-16T02:28:46;8.13;;;7.43;;
5022;SDS011;2530;47.990;7.866;2023-05-16T02:31:23;8.30;;;7.50;;
5022;SDS011;2530;47.990;7.866;2023-05-16T02:33:53;8.70;;;7.90;;
5022;SDS011;2530;47.990;7.866;2023-05-16T02:36:18;7.83;;;7.23;;
5022;SDS011;2530;47.990;7.866;2023-05-16T02:38:45;7.75;;;7.15;;
5022;SDS011;2530;47.990;7.866;2023-05-16T02:41:11;8.95;;;7.80;;
5022;SDS011;2530;47.990;7.866;2023-05-16T02:43:36;8.50;;;7.80;;
5022;SDS011;2530;47.990;7.866;2023-05-16T02:46:18;10.20;;;8.23;;
5022;SDS011;2530;47.990;7.866;2023-05-16T02:48:48;9.00;;;8.10;;
5022;SDS011;2530;47.990;7.866;2023-05-16T02:51:14;8.80;;;7.90;;
5022;SDS011;2530;47.990;7.866;2023-05-16T02:53:40;12.10;;;10.90;;
5022;SDS011;2530;47.990;7.866;2023-05-16T02:56:06;11.63;;;10.57;;
5022;SDS011;2530;47.990;7.866;2023-05-16T02:58:31;11.15;;;10.15;;
5022;SDS011;2530;47.990;7.866;2023-05-16T03:00:57;11.90;;;10.80;;
5022;SDS011;2530;47.990;7.866;2023-05-16T03:03:23;11.63;;;10.63;;
5022;SDS011;2530;47.990;7.866;2023-05-16T03:05:49;12.98;;;11.68;;
5022;SDS011;2530;47.990;7.866;2023-05-16T03:08:15;12.88;;;11.57;;
5022;SDS011;2530;47.990;7.866;2023-05-16T03:10:41;13.23;;;11.93;;
5022;SDS011;2530;47.990;7.866;2023-05-16T03:13:07;13.90;;;12.60;;
5022;SDS011;2530;47.990;7.866;2023-05-16T03:15:32;14.37;;;12.97;;
5022;SDS011;2530;47.990;7.866;2023-05-16T03:17:58;13.50;;;12.20;;
5022;SDS011;2530;47.990;7.866;2023-05-16T03:20:23;14.17;;;12.67;;
5022;SDS011;2530;47.990;7.866;2023-05-16T03:22:49;14.07;;;12.67;;
5022;SDS011;2530;47.990;7.866;2023-05-16T03:25:15;14.97;;;13.57;;
5022;SDS011;2530;47.990;7.866;2023-05-16T03:27:40;14.88;;;13.40;;
5022;SDS011;2530;47.990;7.866;2023-05-16T03:30:06;15.85;;;14.25;;
5022;SDS011;2530;47.990;7.866;2023-05-16T03:32:32;16.10;;;14.60;;
5022;SDS011;2530;47.990;7.866;2023-05-16T03:34:58;17.17;;;15.57;;
5022;SDS011;2530;47.990;7.866;2023-05-16T03:37:23;17.15;;;15.55;;
5022;SDS011;2530;47.990;7.866;2023-05-16T03:39:50;17.83;;;16.10;;
5022;SDS011;2530;47.990;7.866;2023-05-16T03:42:15;16.80;;;15.10;;
5022;SDS011;2530;47.990;7.866;2023-05-16T03:44:42;17.60;;;15.80;;
5022;SDS011;2530;47.990;7.866;2023-05-16T03:47:08;16.75;;;15.00;;
5022;SDS011;2530;47.990;7.866;2023-05-16T03:49:33;16.10;;;14.70;;
5022;SDS011;2530;47.990;7.866;2023-05-16T03:52:00;14.95;;;13.60;;
5022;SDS011;2530;47.990;7.866;2023-05-16T03:54:27;16.00;;;14.33;;
5022;SDS011;2530;47.990;7.866;2023-05-16T03:56:52;16.03;;;13.80;;
5022;SDS011;2530;47.990;7.866;2023-05-16T03:59:18;14.10;;;12.80;;
5022;SDS011;2530;47.990;7.866;2023-05-16T04:01:43;14.18;;;12.77;;
5022;SDS011;2530;47.990;7.866;2023-05-16T04:04:09;14.07;;;12.67;;
5022;SDS011;2530;47.990;7.866;2023-05-16T04:06:34;14.53;;;13.13;;
5022;SDS011;2530;47.990;7.866;2023-05-16T04:09:00;16.65;;;15.05;;
5022;SDS011;2530;47.990;7.866;2023-05-16T04:11:25;15.60;;;14.10;;
5022;SDS011;2530;47.990;7.866;2023-05-16T04:13:51;16.33;;;14.25;;
5022;SDS011;2530;47.990;7.866;2023-05-16T04:16:18;14.70;;;13.40;;
5022;SDS011;2530;47.990;7.866;2023-05-16T04:18:43;14.80;;;13.40;;
5022;SDS011;2530;47.990;7.866;2023-05-16T04:21:09;15.73;;;14.13;;
5022;SDS011;2530;47.990;7.866;2023-05-16T04:23:38;17.67;;;15.35;;
5022;SDS011;2530;47.990;7.866;2023-05-16T04:26:07;16.17;;;14.52;;
5022;SDS011;2530;47.990;7.866;2023-05-16T04:28:33;17.30;;;15.60;;
5022;SDS011;2530;47.990;7.866;2023-05-16T04:30:58;17.07;;;15.37;;
5022;SDS011;2530;47.990;7.866;2023-05-16T04:33:24;15.13;;;13.53;;
5022;SDS011;2530;47.990;7.866;2023-05-16T04:35:50;16.23;;;14.63;;
5022;SDS011;2530;47.990;7.866;2023-05-16T04:38:16;17.80;;;16.00;;
5022;SDS011;2530;47.990;7.866;2023-05-16T04:40:42;20.47;;;17.63;;
5022;SDS011;2530;47.990;7.866;2023-05-16T04:43:07;19.95;;;17.85;;
5022;SDS011;2530;47.990;7.866;2023-05-16T04:45:33;19.65;;;17.65;;
5022;SDS011;2530;47.990;7.866;2023-05-16T04:47:59;19.20;;;17.20;;
5022;SDS011;2530;47.990;7.866;2023-05-16T04:50:25;19.38;;;17.38;;
5022;SDS011;2530;47.990;7.866;2023-05-16T04:52:51;19.85;;;17.85;;
5022;SDS011;2530;47.990;7.866;2023-05-16T04:55:16;21.20;;;19.00;;
5022;SDS011;2530;47.990;7.866;2023-05-16T04:57:42;21.17;;;18.93;;
5022;SDS011;2530;47.990;7.866;2023-05-16T05:00:07;21.17;;;18.97;;
5022;SDS011;2530;47.990;7.866;2023-05-16T05:02:37;22.23;;;19.85;;
5022;SDS011;2530;47.990;7.866;2023-05-16T05:05:03;22.20;;;19.90;;
5022;SDS011;2530;47.990;7.866;2023-05-16T05:07:30;21.63;;;19.40;;
5022;SDS011;2530;47.990;7.866;2023-05-16T05:09:56;21.80;;;19.45;;
5022;SDS011;2530;47.990;7.866;2023-05-16T05:12:22;23.20;;;20.43;;
5022;SDS011;2530;47.990;7.866;2023-05-16T05:14:48;22.13;;;19.83;;
5022;SDS011;2530;47.990;7.866;2023-05-16T05:17:13;22.23;;;19.93;;
5022;SDS011;2530;47.990;7.866;2023-05-16T05:19:40;24.17;;;21.58;;
5022;SDS011;2530;47.990;7.866;2023-05-16T05:22:06;25.70;;;22.63;;
5022;SDS011;2530;47.990;7.866;2023-05-16T05:24:31;26.42;;;23.60;;
5022;SDS011;2530;47.990;7.866;2023-05-16T05:26:57;28.73;;;24.38;;
5022;SDS011;2530;47.990;7.866;2023-05-16T05:29:22;27.40;;;24.42;;
5022;SDS011;2530;47.990;7.866;2023-05-16T05:31:48;28.93;;;24.43;;
5022;SDS011;2530;47.990;7.866;2023-05-16T05:34:13;27.93;;;22.80;;
5022;SDS011;2530;47.990;7.866;2023-05-16T05:36:39;27.80;;;24.20;;
5022;SDS011;2530;47.990;7.866;2023-05-16T05:39:04;29.90;;;24.35;;
5022;SDS011;2530;47.990;7.866;2023-05-16T05:41:30;28.75;;;23.40;;
5022;SDS011;2530;47.990;7.866;2023-05-16T05:43:55;29.73;;;24.30;;
5022;SDS011;2530;47.990;7.866;2023-05-16T05:46:21;30.50;;;24.50;;
5022;SDS011;2530;47.990;7.866;2023-05-16T05:48:48;34.42;;;27.08;;
5022;SDS011;2530;47.990;7.866;2023-05-16T05:51:14;36.30;;;26.53;;
5022;SDS011;2530;47.990;7.866;2023-05-16T05:53:39;34.10;;;25.40;;
5022;SDS011;2530;47.990;7.866;2023-05-16T05:56:05;31.40;;;24.15;;
5022;SDS011;2530;47.990;7.866;2023-05-16T05:58:31;30.52;;;23.77;;
5022;SDS011;2530;47.990;7.866;2023-05-16T06:00:57;33.88;;;26.27;;
5022;SDS011;2530;47.990;7.866;2023-05-16T06:03:22;37.72;;;26.95;;
5022;SDS011;2530;47.990;7.866;2023-05-16T06:05:48;35.50;;;23.87;;
5022;SDS011;2530;47.990;7.866;2023-05-16T06:08:13;34.37;;;25.43;;
5022;SDS011;2530;47.990;7.866;2023-05-16T06:10:39;33.33;;;24.27;;
5022;SDS011;2530;47.990;7.866;2023-05-16T06:13:04;34.85;;;24.15;;
5022;SDS011;2530;47.990;7.866;2023-05-16T06:15:30;39.33;;;26.95;;
5022;SDS011;2530;47.990;7.866;2023-05-16T06:17:56;38.78;;;26.48;;
5022;SDS011;2530;47.990;7.866;2023-05-16T06:20:22;39.33;;;27.35;;
5022;SDS011;2530;47.990;7.866;2023-05-16T06:22:47;38.08;;;25.42;;
5022;SDS011;2530;47.990;7.866;2023-05-16T06:25:13;39.63;;;26.40;;
5022;SDS011;2530;47.990;7.866;2023-05-16T06:27:38;36.88;;;25.42;;
5022;SDS011;2530;47.990;7.866;2023-05-16T06:30:04;36.83;;;23.97;;
5022;SDS011;2530;47.990;7.866;2023-05-16T06:32:30;32.08;;;24.73;;
5022;SDS011;2530;47.990;7.866;2023-05-16T06:34:56;36.95;;;24.80;;
5022;SDS011;2530;47.990;7.866;2023-05-16T06:37:21;39.20;;;27.02;;
5022;SDS011;2530;47.990;7.866;2023-05-16T06:39:47;40.63;;;26.27;;
5022;SDS011;2530;47.990;7.866;2023-05-16T06:42:13;38.03;;;26.30;;
5022;SDS011;2530;47.990;7.866;2023-05-16T06:44:38;40.38;;;25.90;;
5022;SDS011;2530;47.990;7.866;2023-05-16T06:47:04;38.70;;;26.00;;
5022;SDS011;2530;47.990;7.866;2023-05-16T06:49:30;36.42;;;25.02;;
5022;SDS011;2530;47.990;7.866;2023-05-16T06:51:55;34.13;;;24.23;;
5022;SDS011;2530;47.990;7.866;2023-05-16T06:54:21;35.37;;;24.30;;
5022;SDS011;2530;47.990;7.866;2023-05-16T06:56:46;29.10;;;21.60;;
5022;SDS011;2530;47.990;7.866;2023-05-16T06:59:12;27.48;;;20.02;;
5022;SDS011;2530;47.990;7.866;2023-05-16T07:01:37;32.88;;;22.88;;
5022;SDS011;2530;47.990;7.866;2023-05-16T07:04:03;31.50;;;23.07;;
5022;SDS011;2530;47.990;7.866;2023-05-16T07:06:29;29.00;;;21.73;;
5022;SDS011;2530;47.990;7.866;2023-05-16T07:08:55;30.00;;;20.95;;
5022;SDS011;2530;47.990;7.866;2023-05-16T07:11:20;26.40;;;18.80;;
5022;SDS011;2530;47.990;7.866;2023-05-16T07:13:46;27.00;;;21.03;;
5022;SDS011;2530;47.990;7.866;2023-05-16T07:16:11;26.70;;;18.73;;
5022;SDS011;2530;47.990;7.866;2023-05-16T07:18:37;28.25;;;20.20;;
5022;SDS011;2530;47.990;7.866;2023-05-16T07:21:02;26.75;;;19.67;;
5022;SDS011;2530;47.990;7.866;2023-05-16T07:23:28;27.58;;;19.90;;
5022;SDS011;2530;47.990;7.866;2023-05-16T07:25:53;29.17;;;21.67;;
5022;SDS011;2530;47.990;7.866;2023-05-16T07:28:19;28.90;;;22.73;;
5022;SDS011;2530;47.990;7.866;2023-05-16T07:30:46;31.15;;;23.38;;
5022;SDS011;2530;47.990;7.866;2023-05-16T07:33:11;30.23;;;22.42;;
5022;SDS011;2530;47.990;7.866;2023-05-16T07:35:37;30.65;;;22.38;;
5022;SDS011;2530;47.990;7.866;2023-05-16T07:38:04;33.58;;;23.67;;
5022;SDS011;2530;47.990;7.866;2023-05-16T07:40:30;33.03;;;22.63;;
5022;SDS011;2530;47.990;7.866;2023-05-16T07:42:55;34.30;;;23.17;;
5022;SDS011;2530;47.990;7.866;2023-05-16T07:45:21;31.38;;;23.65;;
5022;SDS011;2530;47.990;7.866;2023-05-16T07:47:46;32.00;;;23.45;;
5022;SDS011;2530;47.990;7.866;2023-05-16T07:50:12;29.67;;;22.83;;
5022;SDS011;2530;47.990;7.866;2023-05-16T07:52:37;30.40;;;22.50;;
5022;SDS011;2530;47.990;7.866;2023-05-16T07:55:03;27.97;;;22.70;;
5022;SDS011;2530;47.990;7.866;2023-05-16T07:57:31;30.92;;;22.83;;
5022;SDS011;2530;47.990;7.866;2023-05-16T07:59:56;27.90;;;20.80;;
5022;SDS011;2530;47.990;7.866;2023-05-16T08:02:22;30.92;;;23.45;;
5022;SDS011;2530;47.990;7.866;2023-05-16T08:04:54;30.50;;;23.23;;
5022;SDS011;2530;47.990;7.866;2023-05-16T08:07:21;31.30;;;23.90;;
5022;SDS011;2530;47.990;7.866;2023-05-16T08:09:47;29.80;;;23.73;;
5022;SDS011;2530;47.990;7.866;2023-05-16T08:12:12;33.53;;;23.20;;
5022;SDS011;2530;47.990;7.866;2023-05-16T08:14:38;32.50;;;24.13;;
5022;SDS011;2530;47.990;7.866;2023-05-16T08:17:04;36.15;;;23.80;;
5022;SDS011;2530;47.990;7.866;2023-05-16T08:19:29;34.03;;;24.02;;
5022;SDS011;2530;47.990;7.866;2023-05-16T08:21:56;28.40;;;21.92;;
5022;SDS011;2530;47.990;7.866;2023-05-16T08:24:22;31.33;;;22.57;;
5022;SDS011;2530;47.990;7.866;2023-05-16T08:26:47;32.10;;;22.42;;
5022;SDS011;2530;47.990;7.866;2023-05-16T08:29:13;30.50;;;23.00;;
5022;SDS011;2530;47.990;7.866;2023-05-16T08:31:39;29.90;;;23.00;;
5022;SDS011;2530;47.990;7.866;2023-05-16T08:34:04;30.57;;;23.70;;
5022;SDS011;2530;47.990;7.866;2023-05-16T08:36:30;32.23;;;24.47;;
5022;SDS011;2530;47.990;7.866;2023-05-16T08:38:59;28.02;;;22.70;;
5022;SDS011;2530;47.990;7.866;2023-05-16T08:41:25;28.48;;;20.83;;
5022;SDS011;2530;47.990;7.866;2023-05-16T08:43:51;29.43;;;21.63;;
5022;SDS011;2530;47.990;7.866;2023-05-16T08:46:17;26.67;;;22.67;;
5022;SDS011;2530;47.990;7.866;2023-05-16T08:48:46;30.17;;;21.90;;
5022;SDS011;2530;47.990;7.866;2023-05-16T08:51:16;28.07;;;21.60;;
5022;SDS011;2530;47.990;7.866;2023-05-16T08:53:44;29.38;;;20.83;;
5022;SDS011;2530;47.990;7.866;2023-05-16T08:56:16;26.90;;;20.48;;
5022;SDS011;2530;47.990;7.866;2023-05-16T08:58:42;29.08;;;20.80;;
5022;SDS011;2530;47.990;7.866;2023-05-16T09:01:08;27.60;;;20.75;;
5022;SDS011;2530;47.990;7.866;2023-05-16T09:03:35;28.15;;;20.88;;
5022;SDS011;2530;47.990;7.866;2023-05-16T09:06:03;27.38;;;21.33;;
5022;SDS011;2530;47.990;7.866;2023-05-16T09:08:30;27.90;;;20.73;;
5022;SDS011;2530;47.990;7.866;2023-05-16T09:10:56;26.63;;;20.08;;
5022;SDS011;2530;47.990;7.866;2023-05-16T09:13:22;26.30;;;20.93;;
5022;SDS011;2530;47.990;7.866;2023-05-16T09:16:07;27.30;;;21.15;;
5022;SDS011;2530;47.990;7.866;2023-05-16T09:18:33;29.05;;;21.83;;
5022;SDS011;2530;47.990;7.866;2023-05-16T09:21:00;31.73;;;21.65;;
5022;SDS011;2530;47.990;7.866;2023-05-16T09:23:25;34.55;;;23.98;;
5022;SDS011;2530;47.990;7.866;2023-05-16T09:25:52;30.63;;;22.40;;
5022;SDS011;2530;47.990;7.866;2023-05-16T09:28:17;34.63;;;22.02;;
5022;SDS011;2530;47.990;7.866;2023-05-16T09:30:44;32.30;;;22.95;;
5022;SDS011;2530;47.990;7.866;2023-05-16T09:33:11;34.63;;;23.35;;
5022;SDS011;2530;47.990;7.866;2023-05-16T09:35:36;29.58;;;22.50;;
5022;SDS011;2530;47.990;7.866;2023-05-16T09:38:02;29.25;;;22.30;;
5022;SDS011;2530;47.990;7.866;2023-05-16T09:40:28;31.17;;;23.23;;
5022;SDS011;2530;47.990;7.866;2023-05-16T09:43:01;29.50;;;22.43;;
5022;SDS011;2530;47.990;7.866;2023-05-16T09:45:31;35.00;;;23.88;;
5022;SDS011;2530;47.990;7.866;2023-05-16T09:48:03;32.20;;;23.25;;
5022;SDS011;2530;47.990;7.866;2023-05-16T09:50:31;32.60;;;23.00;;
5022;SDS011;2530;47.990;7.866;2023-05-16T09:52:58;31.48;;;23.50;;
5022;SDS011;2530;47.990;7.866;2023-05-16T09:55:23;32.90;;;23.77;;
5022;SDS011;2530;47.990;7.866;2023-05-16T09:57:49;33.57;;;22.73;;
5022;SDS011;2530;47.990;7.866;2023-05-16T10:00:15;33.92;;;23.83;;
5022;SDS011;2530;47.990;7.866;2023-05-16T10:02:41;28.52;;;21.52;;
5022;SDS011;2530;47.990;7.866;2023-05-16T10:05:08;28.50;;;23.00;;
5022;SDS011;2530;47.990;7.866;2023-05-16T10:07:33;30.23;;;22.10;;
5022;SDS011;2530;47.990;7.866;2023-05-16T10:10:09;29.35;;;22.75;;
5022;SDS011;2530;47.990;7.866;2023-05-16T10:12:36;32.70;;;23.07;;
5022;SDS011;2530;47.990;7.866;2023-05-16T10:15:03;30.60;;;22.00;;
5022;SDS011;2530;47.990;7.866;2023-05-16T10:17:30;30.77;;;22.85;;
5022;SDS011;2530;47.990;7.866;2023-05-16T10:19:59;31.77;;;22.15;;
5022;SDS011;2530;47.990;7.866;2023-05-16T10:22:28;30.02;;;22.52;;
5022;SDS011;2530;47.990;7.866;2023-05-16T10:25:00;27.60;;;21.67;;
5022;SDS011;2530;47.990;7.866;2023-05-16T10:27:47;28.75;;;21.80;;
5022;SDS011;2530;47.990;7.866;2023-05-16T10:30:13;27.65;;;22.15;;
5022;SDS011;2530;47.990;7.866;2023-05-16T10:32:39;31.98;;;22.70;;
5022;SDS011;2530;47.990;7.866;2023-05-16T10:35:06;27.67;;;20.98;;
5022;SDS011;2530;47.990;7.866;2023-05-16T10:37:33;28.58;;;21.98;;
5022;SDS011;2530;47.990;7.866;2023-05-16T10:40:00;26.97;;;21.43;;
5022;SDS011;2530;47.990;7.866;2023-05-16T10:42:30;33.03;;;22.43;;
5022;SDS011;2530;47.990;7.866;2023-05-16T10:45:07;30.50;;;22.27;;
5022;SDS011;2530;47.990;7.866;2023-05-16T10:47:39;28.70;;;21.20;;
5022;SDS011;2530;47.990;7.866;2023-05-16T10:50:05;25.93;;;20.17;;
5022;SDS011;2530;47.990;7.866;2023-05-16T10:52:32;29.67;;;20.87;;
5022;SDS011;2530;47.990;7.866;2023-05-16T10:55:01;26.48;;;20.45;;
5022;SDS011;2530;47.990;7.866;2023-05-16T10:57:28;28.95;;;21.20;;
5022;SDS011;2530;47.990;7.866;2023-05-16T10:59:57;25.10;;;19.85;;
5022;SDS011;2530;47.990;7.866;2023-05-16T11:04:58;24.70;;;19.52;;
5022;SDS011;2530;47.990;7.866;2023-05-16T11:07:32;22.33;;;19.43;;
5022;SDS011;2530;47.990;7.866;2023-05-16T11:10:03;24.83;;;18.23;;
5022;SDS011;2530;47.990;7.866;2023-05-16T11:12:37;20.90;;;17.45;;
5022;SDS011;2530;47.990;7.866;2023-05-16T11:15:17;19.85;;;17.35;;
5022;SDS011;2530;47.990;7.866;2023-05-16T11:17:50;20.20;;;16.08;;
5022;SDS011;2530;47.990;7.866;2023-05-16T11:20:29;19.35;;;15.77;;
5022;SDS011;2530;47.990;7.866;2023-05-16T11:25:55;16.17;;;13.77;;
5022;SDS011;2530;47.990;7.866;2023-05-16T11:28:25;14.15;;;12.65;;
5022;SDS011;2530;47.990;7.866;2023-05-16T11:30:52;15.00;;;13.00;;
5022;SDS011;2530;47.990;7.866;2023-05-16T11:33:20;14.80;;;12.60;;
5022;SDS011;2530;47.990;7.866;2023-05-16T11:36:07;13.63;;;12.10;;
5022;SDS011;2530;47.990;7.866;2023-05-16T11:38:33;13.15;;;11.02;;
5022;SDS011;2530;47.990;7.866;2023-05-16T11:41:03;12.13;;;10.80;;
5022;SDS011;2530;47.990;7.866;2023-05-16T11:43:35;13.25;;;10.95;;
5022;SDS011;2530;47.990;7.866;2023-05-16T11:46:02;12.10;;;10.20;;
5022;SDS011;2530;47.990;7.866;2023-05-16T11:48:28;12.75;;;10.52;;
5022;SDS011;2530;47.990;7.866;2023-05-16T11:50:54;11.10;;;9.82;;
5022;SDS011;2530;47.990;7.866;2023-05-16T11:53:20;11.70;;;10.10;;
5022;SDS011;2530;47.990;7.866;2023-05-16T11:55:46;15.60;;;11.80;;
5022;SDS011;2530;47.990;7.866;2023-05-16T11:58:16;13.45;;;10.60;;
5022;SDS011;2530;47.990;7.866;2023-05-16T12:00:47;13.93;;;10.55;;
5022;SDS011;2530;47.990;7.866;2023-05-16T12:03:14;13.65;;;10.55;;
5022;SDS011;2530;47.990;7.866;2023-05-16T12:05:48;12.70;;;10.68;;
5022;SDS011;2530;47.990;7.866;2023-05-16T12:08:16;15.15;;;11.05;;
5022;SDS011;2530;47.990;7.866;2023-05-16T12:10:41;11.13;;;9.90;;
5022;SDS011;2530;47.990;7.866;2023-05-16T12:13:07;11.70;;;10.50;;
5022;SDS011;2530;47.990;7.866;2023-05-16T12:15:32;10.43;;;9.27;;
5022;SDS011;2530;47.990;7.866;2023-05-16T12:17:58;9.80;;;8.82;;
5022;SDS011;2530;47.990;7.866;2023-05-16T12:20:24;10.30;;;9.00;;
5022;SDS011;2530;47.990;7.866;2023-05-16T12:22:50;10.18;;;9.15;;
5022;SDS011;2530;47.990;7.866;2023-05-16T12:25:23;8.70;;;7.90;;
5022;SDS011;2530;47.990;7.866;2023-05-16T12:27:53;8.18;;;7.38;;
5022;SDS011;2530;47.990;7.866;2023-05-16T12:30:23;7.90;;;7.20;;
5022;SDS011;2530;47.990;7.866;2023-05-16T12:32:56;7.40;;;6.70;;
5022;SDS011;2530;47.990;7.866;2023-05-16T12:35:29;7.35;;;6.65;;
5022;SDS011;2530;47.990;7.866;2023-05-16T12:37:56;7.47;;;6.60;;
5022;SDS011;2530;47.990;7.866;2023-05-16T12:40:21;7.28;;;6.47;;
5022;SDS011;2530;47.990;7.866;2023-05-16T12:42:52;7.00;;;6.40;;
5022;SDS011;2530;47.990;7.866;2023-05-16T12:45:18;7.05;;;6.43;;
5022;SDS011;2530;47.990;7.866;2023-05-16T12:47:44;7.68;;;6.82;;
5022;SDS011;2530;47.990;7.866;2023-05-16T12:50:11;6.68;;;6.07;;
5022;SDS011;2530;47.990;7.866;2023-05-16T12:52:45;6.55;;;6.05;;
5022;SDS011;2530;47.990;7.866;2023-05-16T12:55:13;7.07;;;6.38;;
5022;SDS011;2530;47.990;7.866;2023-05-16T12:57:40;6.80;;;6.20;;
5022;SDS011;2530;47.990;7.866;2023-05-16T13:00:07;6.80;;;6.20;;
5022;SDS011;2530;47.990;7.866;2023-05-16T13:02:35;6.75;;;6.15;;
5022;SDS011;2530;47.990;7.866;2023-05-16T13:05:01;8.30;;;6.57;;
5022;SDS011;2530;47.990;7.866;2023-05-16T13:07:27;7.70;;;7.00;;
5022;SDS011;2530;47.990;7.866;2023-05-16T13:09:52;7.20;;;6.60;;
5022;SDS011;2530;47.990;7.866;2023-05-16T13:12:18;6.50;;;6.00;;
5022;SDS011;2530;47.990;7.866;2023-05-16T13:14:43;7.00;;;6.30;;
5022;SDS011;2530;47.990;7.866;2023-05-16T13:17:09;6.60;;;6.00;;
5022;SDS011;2530;47.990;7.866;2023-05-16T13:19:35;6.80;;;6.20;;
5022;SDS011;2530;47.990;7.866;2023-05-16T13:22:01;7.10;;;6.43;;
5022;SDS011;2530;47.990;7.866;2023-05-16T13:24:28;7.45;;;6.82;;
5022;SDS011;2530;47.990;7.866;2023-05-16T13:26:53;7.23;;;6.40;;
5022;SDS011;2530;47.990;7.866;2023-05-16T13:29:18;7.30;;;6.57;;
5022;SDS011;2530;47.990;7.866;2023-05-16T13:31:44;6.50;;;5.90;;
5022;SDS011;2530;47.990;7.866;2023-05-16T13:34:10;6.07;;;5.57;;
5022;SDS011;2530;47.990;7.866;2023-05-16T13:36:35;6.40;;;5.90;;
5022;SDS011;2530;47.990;7.866;2023-05-16T13:39:01;6.60;;;5.90;;
5022;SDS011;2530;47.990;7.866;2023-05-16T13:41:26;6.30;;;5.47;;
5022;SDS011;2530;47.990;7.866;2023-05-16T13:43:52;5.95;;;5.45;;
5022;SDS011;2530;47.990;7.866;2023-05-16T13:46:17;5.00;;;4.60;;
5022;SDS011;2530;47.990;7.866;2023-05-16T13:48:43;5.30;;;4.80;;
5022;SDS011;2530;47.990;7.866;2023-05-16T13:51:08;4.60;;;4.20;;
5022;SDS011;2530;47.990;7.866;2023-05-16T13:53:35;3.80;;;3.50;;
5022;SDS011;2530;47.990;7.866;2023-05-16T13:56:00;4.20;;;3.80;;
5022;SDS011;2530;47.990;7.866;2023-05-16T13:58:26;4.20;;;3.83;;
5022;SDS011;2530;47.990;7.866;2023-05-16T14:00:52;3.72;;;3.42;;
5022;SDS011;2530;47.990;7.866;2023-05-16T14:03:17;3.75;;;3.45;;
5022;SDS011;2530;47.990;7.866;2023-05-16T14:05:43;3.60;;;3.10;;
5022;SDS011;2530;47.990;7.866;2023-05-16T14:08:08;3.43;;;3.13;;
5022;SDS011;2530;47.990;7.866;2023-05-16T14:10:34;3.50;;;3.20;;
5022;SDS011;2530;47.990;7.866;2023-05-16T14:12:59;3.90;;;3.60;;
5022;SDS011;2530;47.990;7.866;2023-05-16T14:15:25;3.78;;;3.30;;
5022;SDS011;2530;47.990;7.866;2023-05-16T14:17:50;3.78;;;3.40;;
5022;SDS011;2530;47.990;7.866;2023-05-16T14:20:16;3.70;;;3.40;;
5022;SDS011;2530;47.990;7.866;2023-05-16T14:22:42;4.30;;;4.00;;
5022;SDS011;2530;47.990;7.866;2023-05-16T14:25:07;4.03;;;3.72;;
5022;SDS011;2530;47.990;7.866;2023-05-16T14:27:33;4.80;;;4.40;;
5022;SDS011;2530;47.990;7.866;2023-05-16T14:29:58;5.37;;;4.93;;
5022;SDS011;2530;47.990;7.866;2023-05-16T14:32:24;5.07;;;4.67;;
5022;SDS011;2530;47.990;7.866;2023-05-16T14:34:49;5.67;;;4.77;;
5022;SDS011;2530;47.990;7.866;2023-05-16T14:37:15;4.70;;;4.30;;
5022;SDS011;2530;47.990;7.866;2023-05-16T14:39:43;4.90;;;4.50;;
5022;SDS011;2530;47.990;7.866;2023-05-16T14:42:10;5.10;;;4.70;;
5022;SDS011;2530;47.990;7.866;2023-05-16T14:44:36;4.32;;;4.03;;
5022;SDS011;2530;47.990;7.866;2023-05-16T14:47:02;5.10;;;4.70;;
5022;SDS011;2530;47.990;7.866;2023-05-16T14:49:28;6.20;;;5.30;;
5022;SDS011;2530;47.990;7.866;2023-05-16T14:51:54;5.05;;;4.55;;
5022;SDS011;2530;47.990;7.866;2023-05-16T14:54:20;4.45;;;4.15;;
5022;SDS011;2530;47.990;7.866;2023-05-16T14:56:46;5.20;;;4.70;;
5022;SDS011;2530;47.990;7.866;2023-05-16T14:59:11;6.20;;;4.90;;
5022;SDS011;2530;47.990;7.866;2023-05-16T15:01:37;4.80;;;4.40;;
5022;SDS011;2530;47.990;7.866;2023-05-16T15:04:02;5.00;;;4.60;;
5022;SDS011;2530;47.990;7.866;2023-05-16T15:06:28;4.80;;;4.40;;
5022;SDS011;2530;47.990;7.866;2023-05-16T15:08:54;3.90;;;3.60;;
5022;SDS011;2530;47.990;7.866;2023-05-16T15:11:19;4.90;;;4.20;;
5022;SDS011;2530;47.990;7.866;2023-05-16T15:13:45;4.43;;;4.03;;
5022;SDS011;2530;47.990;7.866;2023-05-16T15:16:12;4.38;;;4.00;;
5022;SDS011;2530;47.990;7.866;2023-05-16T15:18:37;4.20;;;3.90;;
5022;SDS011;2530;47.990;7.866;2023-05-16T15:21:04;4.00;;;3.53;;